createdAt,value
2022-08-11T00:00:45.219Z,0.08
2022-08-11T00:01:46.279Z,0.14
2022-08-11T00:02:47.269Z,0.09
2022-08-11T00:03:48.159Z,0.08
2022-08-11T00:04:49.220Z,0
2022-08-11T00:05:50.227Z,0
2022-08-11T00:06:51.365Z,0.15
2022-08-11T00:07:53.259Z,0.18
2022-08-11T00:08:54.145Z,0.05
2022-08-11T00:09:55.159Z,0
2022-08-11T00:10:56.538Z,0
2022-08-11T00:11:58.986Z,0
2022-08-11T00:13:00.219Z,0
2022-08-11T00:14:01.188Z,0
2022-08-11T00:15:02.260Z,0
2022-08-11T00:16:03.201Z,0
2022-08-11T00:17:04.258Z,0
2022-08-11T00:18:05.207Z,0
2022-08-11T00:19:06.206Z,0
2022-08-11T00:20:13.503Z,0
2022-08-11T00:21:08.199Z,0
2022-08-11T00:22:09.219Z,0
2022-08-11T00:23:10.218Z,0
2022-08-11T00:24:11.274Z,0
2022-08-11T00:25:12.259Z,0
2022-08-11T00:26:13.178Z,0
2022-08-11T00:27:14.403Z,0
2022-08-11T00:28:15.178Z,0
2022-08-11T00:29:16.180Z,0
2022-08-11T00:30:17.209Z,0
2022-08-11T00:31:18.229Z,0
2022-08-11T00:32:19.222Z,0
2022-08-11T00:33:20.259Z,0
2022-08-11T00:34:21.278Z,0
2022-08-11T00:35:50.321Z,0
2022-08-11T00:36:25.533Z,0
2022-08-11T00:37:24.375Z,0.12
2022-08-11T00:38:26.238Z,0.07
2022-08-11T00:39:29.108Z,0
2022-08-11T00:40:29.299Z,0
2022-08-11T00:41:30.141Z,0
2022-08-11T00:42:31.219Z,0
2022-08-11T00:43:32.258Z,0
2022-08-11T00:44:33.223Z,0.16
2022-08-11T00:45:34.198Z,0
2022-08-11T00:46:35.198Z,0
2022-08-11T00:47:36.207Z,0
2022-08-11T00:48:37.181Z,0
2022-08-11T00:49:38.226Z,0
2022-08-11T00:50:39.200Z,0
2022-08-11T00:51:56.790Z,0
2022-08-11T00:52:41.260Z,0.09
2022-08-11T00:53:42.418Z,0
2022-08-11T00:54:44.360Z,0
2022-08-11T00:55:47.084Z,0
2022-08-11T00:56:47.198Z,0
2022-08-11T00:57:48.221Z,0
2022-08-11T00:58:50.994Z,0
2022-08-11T00:59:50.219Z,0
2022-08-11T01:03:54.266Z,0
2022-08-11T01:04:55.942Z,0
2022-08-11T01:05:56.395Z,0
2022-08-11T01:06:57.304Z,0
2022-08-11T01:07:58.939Z,0
2022-08-11T01:09:00.235Z,0
2022-08-11T01:10:05.197Z,0
2022-08-11T01:11:02.195Z,0
2022-08-11T01:12:03.238Z,0
2022-08-11T01:13:04.236Z,0
2022-08-11T01:14:05.316Z,0
2022-08-11T01:15:06.268Z,0
2022-08-11T01:16:07.224Z,0
2022-08-11T01:17:09.626Z,0
2022-08-11T01:18:09.238Z,0
2022-08-11T01:19:10.296Z,0
2022-08-11T01:20:16.282Z,0
2022-08-11T01:21:12.375Z,0
2022-08-11T01:22:14.256Z,0
2022-08-11T01:23:15.909Z,0
2022-08-11T01:24:16.213Z,0
2022-08-11T01:25:17.218Z,0
2022-08-11T01:26:18.176Z,0
2022-08-11T01:27:19.953Z,0
2022-08-11T01:28:20.213Z,0
2022-08-11T01:29:21.335Z,0
2022-08-11T01:30:22.278Z,0
2022-08-11T01:31:23.790Z,0
2022-08-11T01:32:24.286Z,0
2022-08-11T01:33:25.278Z,0
2022-08-11T01:34:26.276Z,0
2022-08-11T01:35:27.264Z,0
2022-08-11T01:36:28.341Z,0
2022-08-11T01:37:29.416Z,0
2022-08-11T01:38:31.434Z,0
2022-08-11T01:39:33.485Z,0
2022-08-11T01:40:35.260Z,0
2022-08-11T01:41:36.204Z,0
2022-08-11T01:42:37.431Z,0
2022-08-11T01:43:38.253Z,0
2022-08-11T01:44:39.314Z,0
2022-08-11T01:45:40.437Z,0
2022-08-11T01:46:42.334Z,0
2022-08-11T01:47:51.122Z,0
2022-08-11T01:48:46.335Z,0
2022-08-11T01:50:09.219Z,0
2022-08-11T01:50:49.233Z,0
2022-08-11T01:51:50.215Z,0
2022-08-11T01:52:51.275Z,0
2022-08-11T01:53:52.293Z,0
2022-08-11T01:54:53.506Z,0
2022-08-11T01:55:54.334Z,0
2022-08-11T01:56:55.247Z,0
2022-08-11T01:57:56.493Z,0
2022-08-11T01:58:58.274Z,0
2022-08-11T01:59:59.274Z,0
2022-08-11T02:01:00.370Z,0
2022-08-11T02:02:01.354Z,0
2022-08-11T02:03:02.237Z,0
2022-08-11T02:04:03.236Z,0
2022-08-11T02:05:04.243Z,0.09
2022-08-11T02:06:05.394Z,0
2022-08-11T02:07:08.965Z,0
2022-08-11T02:08:08.343Z,0
2022-08-11T02:09:09.275Z,0
2022-08-11T02:10:10.235Z,0
2022-08-11T02:11:12.751Z,0
2022-08-11T02:12:12.294Z,0
2022-08-11T02:13:13.378Z,0
2022-08-11T02:14:14.294Z,0
2022-08-11T02:15:15.275Z,0
2022-08-11T02:16:16.314Z,0
2022-08-11T02:17:17.295Z,0
2022-08-11T02:18:18.314Z,0
2022-08-11T02:19:19.243Z,0
2022-08-11T02:20:20.275Z,0
2022-08-11T02:21:21.391Z,0
2022-08-11T02:22:22.333Z,0
2022-08-11T02:23:25.061Z,0
2022-08-11T02:24:24.295Z,0
2022-08-11T02:25:25.317Z,0
2022-08-11T02:26:26.821Z,0
2022-08-11T02:27:27.296Z,0
2022-08-11T02:28:28.274Z,0
2022-08-11T02:29:29.315Z,0
2022-08-11T02:30:30.207Z,0
2022-08-11T02:32:15.724Z,0
2022-08-11T02:32:32.352Z,0
2022-08-11T02:33:33.316Z,0
2022-08-11T02:34:34.253Z,0
2022-08-11T02:35:35.258Z,0
2022-08-11T02:36:36.274Z,0
2022-08-11T02:37:37.315Z,0
2022-08-11T02:38:38.277Z,0
2022-08-11T02:39:39.412Z,0
2022-08-11T02:40:40.335Z,0
2022-08-11T02:41:41.357Z,0
2022-08-11T02:42:42.633Z,0
2022-08-11T02:43:46.051Z,0
2022-08-11T02:44:46.246Z,0
2022-08-11T02:45:47.331Z,0
2022-08-11T02:46:48.294Z,0
2022-08-11T02:47:49.274Z,0
2022-08-11T02:48:50.314Z,0
2022-08-11T02:49:59.876Z,0
2022-08-11T02:50:52.328Z,0
2022-08-11T02:51:53.297Z,0
2022-08-11T02:52:54.293Z,0
2022-08-11T02:53:56.401Z,0
2022-08-11T02:54:56.697Z,0
2022-08-11T02:55:58.486Z,0
2022-08-11T02:56:59.435Z,0
2022-08-11T02:58:00.259Z,0
2022-08-11T02:59:01.393Z,0
2022-08-11T03:00:02.284Z,0
2022-08-11T03:01:03.215Z,0
2022-08-11T03:02:05.631Z,0
2022-08-11T03:03:06.235Z,0
2022-08-11T03:04:07.259Z,0
2022-08-11T03:05:08.354Z,0
2022-08-11T03:06:09.356Z,0
2022-08-11T03:07:28.439Z,0
2022-08-11T03:08:11.334Z,0
2022-08-11T03:09:12.328Z,0
2022-08-11T03:10:13.402Z,0
2022-08-11T03:11:15.274Z,0
2022-08-11T03:12:16.259Z,0
2022-08-11T03:13:17.382Z,0
2022-08-11T03:14:18.313Z,0
2022-08-11T03:15:19.274Z,0
2022-08-11T03:16:20.276Z,0.09
2022-08-11T03:17:21.398Z,0
2022-08-11T03:18:22.402Z,0
2022-08-11T03:19:23.296Z,0
2022-08-11T03:20:24.335Z,0
2022-08-11T03:21:25.376Z,0
2022-08-11T03:22:26.333Z,0
2022-08-11T03:23:27.295Z,0
2022-08-11T03:24:28.458Z,0
2022-08-11T03:25:30.294Z,0
2022-08-11T03:26:31.334Z,0
2022-08-11T03:27:32.314Z,0
2022-08-11T03:28:33.294Z,0
2022-08-11T03:29:34.280Z,0
2022-08-11T03:30:35.466Z,0
2022-08-11T03:31:36.335Z,0
2022-08-11T03:32:37.565Z,0
2022-08-11T03:33:38.325Z,0
2022-08-11T03:34:39.294Z,0
2022-08-11T03:35:40.355Z,0
2022-08-11T03:36:57.626Z,0
2022-08-11T03:37:43.319Z,0
2022-08-11T03:38:44.274Z,0
2022-08-11T03:39:51.065Z,0
2022-08-11T03:40:46.294Z,0
2022-08-11T03:42:03.046Z,0
2022-08-11T03:42:48.334Z,0
2022-08-11T03:43:50.358Z,0
2022-08-11T03:44:50.405Z,0
2022-08-11T03:45:51.321Z,0
2022-08-11T03:46:52.402Z,0
2022-08-11T03:47:55.501Z,0
2022-08-11T03:48:54.326Z,0
2022-08-11T03:49:55.358Z,0
2022-08-11T03:50:56.685Z,0
2022-08-11T03:51:58.354Z,0
2022-08-11T03:52:59.355Z,0
2022-08-11T03:54:00.335Z,0
2022-08-11T03:55:01.494Z,0
2022-08-11T03:56:02.294Z,0
2022-08-11T03:57:03.313Z,0
2022-08-11T03:58:04.321Z,0
2022-08-11T03:59:05.354Z,0
2022-08-11T04:00:06.362Z,0
2022-08-11T04:01:07.444Z,0
2022-08-11T04:02:09.420Z,0
2022-08-11T04:03:10.355Z,0
2022-08-11T04:04:11.433Z,0
2022-08-11T04:05:12.314Z,0
2022-08-11T04:06:13.433Z,0
2022-08-11T04:07:17.705Z,0
2022-08-11T04:08:16.515Z,0
2022-08-11T04:09:18.333Z,0
2022-08-11T04:10:19.394Z,0
2022-08-11T04:11:20.333Z,0
2022-08-11T04:12:36.175Z,0
2022-08-11T04:13:25.375Z,0
2022-08-11T04:14:26.295Z,0
2022-08-11T04:15:27.397Z,0
2022-08-11T04:16:28.225Z,0
2022-08-11T04:17:29.318Z,0
2022-08-11T04:18:30.274Z,0
2022-08-11T04:19:31.363Z,0
2022-08-11T04:20:32.374Z,0
2022-08-11T04:21:33.338Z,0
2022-08-11T04:22:34.282Z,0
2022-08-11T04:24:13.658Z,0
2022-08-11T04:24:39.430Z,0
2022-08-11T04:25:51.194Z,0
2022-08-11T04:26:38.375Z,0
2022-08-11T04:27:39.455Z,0.09
2022-08-11T04:28:43.159Z,0
2022-08-11T04:30:04.172Z,0
2022-08-11T04:30:42.416Z,0
2022-08-11T04:31:44.569Z,0
2022-08-11T04:32:44.413Z,0
2022-08-11T04:33:45.374Z,0
2022-08-11T04:34:46.338Z,0
2022-08-11T04:35:51.079Z,0
2022-08-11T04:36:48.574Z,0
2022-08-11T04:37:53.253Z,0
2022-08-11T04:38:51.374Z,0
2022-08-11T04:39:52.524Z,0
2022-08-11T04:40:54.456Z,0
2022-08-11T04:41:56.821Z,0
2022-08-11T04:42:58.496Z,0
2022-08-11T04:44:02.950Z,0
2022-08-11T04:45:01.431Z,0
2022-08-11T04:46:02.379Z,0
2022-08-11T04:47:03.356Z,0
2022-08-11T04:48:04.814Z,0
2022-08-11T04:49:05.394Z,0
2022-08-11T04:50:06.374Z,0
2022-08-11T04:51:08.959Z,0
2022-08-11T04:52:08.355Z,0
2022-08-11T04:53:09.323Z,0
2022-08-11T04:54:10.408Z,0
2022-08-11T04:55:11.355Z,0
2022-08-11T04:56:12.376Z,0
2022-08-11T04:57:13.497Z,0
2022-08-11T04:58:15.436Z,0
2022-08-11T04:59:17.397Z,0
2022-08-11T05:00:18.324Z,0
2022-08-11T05:01:19.338Z,0
2022-08-11T05:02:20.396Z,0
2022-08-11T05:03:21.498Z,0
2022-08-11T05:04:22.453Z,0
2022-08-11T05:05:23.397Z,0
2022-08-11T05:06:24.416Z,0
2022-08-11T05:07:25.337Z,0
2022-08-11T05:08:26.364Z,0
2022-08-11T05:09:27.478Z,0
2022-08-11T05:10:28.458Z,0
2022-08-11T05:11:29.475Z,0
2022-08-11T05:12:31.379Z,0
2022-08-11T05:13:32.377Z,0
2022-08-11T05:14:33.394Z,0
2022-08-11T05:15:42.340Z,0
2022-08-11T05:16:35.396Z,0
2022-08-11T05:17:36.378Z,0
2022-08-11T05:18:37.376Z,0
2022-08-11T05:19:38.337Z,0
2022-08-11T05:20:39.450Z,0
2022-08-11T05:21:44.549Z,0
2022-08-11T05:22:42.519Z,0
2022-08-11T05:23:44.435Z,0
2022-08-11T05:24:45.354Z,0
2022-08-11T05:26:42.741Z,0
2022-08-11T05:26:49.444Z,0
2022-08-11T05:27:48.418Z,0
2022-08-11T05:28:49.414Z,0
2022-08-11T05:29:50.401Z,0
2022-08-11T05:30:51.394Z,0
2022-08-11T05:31:52.378Z,0
2022-08-11T05:32:55.858Z,0
2022-08-11T05:33:54.415Z,0
2022-08-11T05:34:55.357Z,0
2022-08-11T05:36:01.207Z,0
2022-08-11T05:37:11.711Z,0
2022-08-11T05:38:00.476Z,0
2022-08-11T05:39:02.354Z,0.09
2022-08-11T05:40:03.574Z,0
2022-08-11T05:41:04.402Z,0
2022-08-11T05:42:05.634Z,0
2022-08-11T05:43:07.454Z,0
2022-08-11T05:44:19.462Z,0
2022-08-11T05:45:15.504Z,0
2022-08-11T05:46:13.203Z,0
2022-08-11T05:47:11.415Z,0
2022-08-11T05:48:12.474Z,0
2022-08-11T05:49:13.386Z,0
2022-08-11T05:50:15.209Z,0
2022-08-11T05:51:16.342Z,0
2022-08-11T05:52:16.807Z,0
2022-08-11T05:53:17.437Z,0
2022-08-11T05:54:28.099Z,0
2022-08-11T05:55:19.377Z,0
2022-08-11T05:56:20.419Z,0
2022-08-11T05:57:39.961Z,0
2022-08-11T05:58:23.377Z,0
2022-08-11T05:59:24.498Z,0
2022-08-11T06:00:25.436Z,0
2022-08-11T06:01:26.473Z,0
2022-08-11T06:02:27.458Z,0
2022-08-11T06:03:28.374Z,0
2022-08-11T06:04:29.356Z,0
2022-08-11T06:05:30.476Z,0
2022-08-11T06:06:31.479Z,0
2022-08-11T06:07:47.394Z,0
2022-08-11T06:08:34.396Z,0
2022-08-11T06:09:35.455Z,0
2022-08-11T06:10:36.495Z,0
2022-08-11T06:11:43.472Z,0
2022-08-11T06:12:39.754Z,0
2022-08-11T06:13:41.537Z,0
2022-08-11T06:14:42.452Z,0
2022-08-11T06:15:43.429Z,0
2022-08-11T06:16:44.656Z,0
2022-08-11T06:17:46.417Z,0
2022-08-11T06:18:47.394Z,0
2022-08-11T06:19:48.379Z,0
2022-08-11T06:20:49.376Z,0
2022-08-11T06:21:50.384Z,0
2022-08-11T06:22:53.124Z,0
2022-08-11T06:23:52.562Z,0
2022-08-11T06:24:53.417Z,0
2022-08-11T06:25:56.163Z,0
2022-08-11T06:27:11.574Z,0
2022-08-11T06:27:56.995Z,0
2022-08-11T06:28:58.498Z,0
2022-08-11T06:29:59.430Z,0
2022-08-11T06:31:00.363Z,0
2022-08-11T06:32:01.500Z,0
2022-08-11T06:33:02.435Z,0.5
2022-08-11T06:34:03.435Z,0.38
2022-08-11T06:35:04.413Z,0.21
2022-08-11T06:36:05.434Z,0.24
2022-08-11T06:37:06.442Z,0.18
2022-08-11T06:38:07.594Z,0
2022-08-11T06:39:09.669Z,0.21
2022-08-11T06:40:11.466Z,0.05
2022-08-11T06:41:12.442Z,0
2022-08-11T06:42:13.514Z,0
2022-08-11T06:43:14.575Z,0.42
2022-08-11T06:44:16.577Z,0
2022-08-11T06:45:18.459Z,0
2022-08-11T06:46:21.415Z,0.3
2022-08-11T06:48:21.735Z,0.42
2022-08-11T06:49:23.440Z,0.19
2022-08-11T06:50:24.669Z,0.35
2022-08-11T06:51:26.475Z,0.85
2022-08-11T06:52:34.098Z,0.42
2022-08-11T06:53:28.460Z,1.02
2022-08-11T06:54:29.552Z,0.08
2022-08-11T06:55:56.368Z,0.14
2022-08-11T06:56:32.402Z,0.51
2022-08-11T06:57:33.477Z,1.05
2022-08-11T06:58:34.522Z,0.73
2022-08-11T06:59:35.504Z,0.32
2022-08-11T07:00:36.454Z,0.41
2022-08-11T07:01:37.526Z,0.59
2022-08-11T07:02:38.468Z,1.08
2022-08-11T07:03:39.453Z,1.03
2022-08-11T07:04:40.474Z,0.35
2022-08-11T07:05:41.538Z,0.29
2022-08-11T07:06:50.350Z,0.23
2022-08-11T07:07:47.473Z,0.41
2022-08-11T07:08:48.475Z,0.4
2022-08-11T07:09:50.437Z,0.44
2022-08-11T07:10:51.437Z,0.22
2022-08-11T07:11:52.426Z,0.16
2022-08-11T07:12:53.474Z,0.11
2022-08-11T07:13:54.395Z,0.7
2022-08-11T07:14:59.914Z,0.36
2022-08-11T07:16:11.973Z,0.27
2022-08-11T07:16:58.474Z,1.16
2022-08-11T07:17:59.675Z,0.84
2022-08-11T07:19:01.559Z,0.4
2022-08-11T07:20:02.555Z,0.24
2022-08-11T07:21:04.473Z,0.26
2022-08-11T07:22:05.575Z,0.33
2022-08-11T07:23:06.454Z,0.72
2022-08-11T07:24:07.461Z,0.95
2022-08-11T07:25:08.435Z,0.5
2022-08-11T07:26:09.414Z,0
2022-08-11T07:27:10.656Z,0
2022-08-11T07:28:12.585Z,0.22
2022-08-11T07:29:13.462Z,0.29
2022-08-11T07:30:14.568Z,0.52
2022-08-11T07:31:15.647Z,0.51
2022-08-11T07:32:17.658Z,0.3
2022-08-11T07:34:04.911Z,0.57
2022-08-11T07:34:20.454Z,0.66
2022-08-11T07:35:21.642Z,1.03
2022-08-11T07:36:23.634Z,0.58
2022-08-11T07:37:25.594Z,0.18
2022-08-11T07:38:27.393Z,1
2022-08-11T07:39:28.642Z,0.58
2022-08-11T07:40:29.449Z,1.14
2022-08-11T07:41:30.434Z,0.51
2022-08-11T07:42:31.434Z,0.49
2022-08-11T07:43:32.474Z,0.66
2022-08-11T07:44:35.208Z,0.67
2022-08-11T07:45:34.494Z,0.24
2022-08-11T07:46:35.513Z,0.43
2022-08-11T07:47:36.425Z,0.79
2022-08-11T07:48:37.493Z,0.59
2022-08-11T07:49:38.474Z,0.39
2022-08-11T07:50:39.493Z,1.18
2022-08-11T07:51:40.456Z,0.62
2022-08-11T07:52:41.635Z,0.55
2022-08-11T07:53:57.772Z,0.2
2022-08-11T07:54:48.062Z,0.35
2022-08-11T07:55:49.308Z,0.29
2022-08-11T07:56:54.662Z,0.14
2022-08-11T07:58:10.271Z,0.14
2022-08-11T07:58:54.476Z,1.06
2022-08-11T07:59:58.640Z,1.24
2022-08-11T08:00:59.322Z,0.2
2022-08-11T08:01:59.759Z,1.17
2022-08-11T08:03:01.674Z,0.77
2022-08-11T08:04:03.524Z,0.24
2022-08-11T08:05:04.495Z,0.43
2022-08-11T08:06:05.474Z,1.4
2022-08-11T08:07:06.401Z,0.47
2022-08-11T08:08:07.642Z,0.58
2022-08-11T08:09:09.475Z,1.1
2022-08-11T08:10:14.248Z,0.52
2022-08-11T08:11:12.555Z,0.32
2022-08-11T08:12:13.597Z,0.26
2022-08-11T08:13:14.517Z,0.66
2022-08-11T08:14:15.534Z,0.86
2022-08-11T08:15:16.553Z,1.45
2022-08-11T08:16:17.534Z,0.77
2022-08-11T08:17:18.615Z,0.75
2022-08-11T08:18:25.449Z,0.47
2022-08-11T08:19:20.514Z,0.3
2022-08-11T08:20:21.594Z,0.21
2022-08-11T08:21:22.374Z,0.83
2022-08-11T08:22:37.618Z,0.81
2022-08-11T08:23:24.481Z,0.67
2022-08-11T08:24:25.655Z,0.57
2022-08-11T08:25:27.610Z,1.38
2022-08-11T08:26:28.554Z,0.98
2022-08-11T08:27:29.493Z,0.1
2022-08-11T08:28:32.546Z,0.15
2022-08-11T08:29:32.681Z,0.13
2022-08-11T08:30:34.641Z,0
2022-08-11T08:31:36.474Z,0.36
2022-08-11T08:32:37.659Z,0.3
2022-08-11T08:33:38.473Z,0.92
2022-08-11T08:34:39.563Z,0.45
2022-08-11T08:35:54.607Z,0
2022-08-11T08:36:41.725Z,0.87
2022-08-11T08:37:45.171Z,1.9
2022-08-11T08:38:45.614Z,0.75
2022-08-11T08:39:47.513Z,0.33
2022-08-11T08:40:48.535Z,0.6
2022-08-11T08:41:49.494Z,0.48
2022-08-11T08:42:50.522Z,0.7
2022-08-11T08:43:51.577Z,1.16
2022-08-11T08:44:52.437Z,0.52
2022-08-11T08:45:53.514Z,1.27
2022-08-11T08:46:54.478Z,2.14
2022-08-11T08:47:55.494Z,1.17
2022-08-11T08:48:56.502Z,1.48
2022-08-11T08:49:57.455Z,1.36
2022-08-11T08:50:58.475Z,1.75
2022-08-11T08:52:02.669Z,1.71
2022-08-11T08:53:00.519Z,1.09
2022-08-11T08:54:01.569Z,0.74
2022-08-11T08:55:02.515Z,0.3
2022-08-11T08:56:03.502Z,0.95
2022-08-11T08:57:04.474Z,0.59
2022-08-11T08:58:05.654Z,1.08
2022-08-11T08:59:07.685Z,0.65
2022-08-11T09:00:12.672Z,1.01
2022-08-11T09:01:10.780Z,0.81
2022-08-11T09:02:12.686Z,1.74
2022-08-11T09:03:39.330Z,1.73
2022-08-11T09:04:20.446Z,1.6
2022-08-11T09:05:18.534Z,1.53
2022-08-11T09:06:19.514Z,0.7
2022-08-11T09:07:20.475Z,0.75
2022-08-11T09:08:21.663Z,0.48
2022-08-11T09:09:22.774Z,1.59
2022-08-11T09:10:24.495Z,2.15
2022-08-11T09:11:25.573Z,1.01
2022-08-11T09:12:35.659Z,1.72
2022-08-11T09:13:27.535Z,2.47
2022-08-11T09:14:28.697Z,1.68
2022-08-11T09:15:29.466Z,1.55
2022-08-11T09:16:30.556Z,1.64
2022-08-11T09:17:31.516Z,2.2
2022-08-11T09:18:33.767Z,1.42
2022-08-11T09:19:33.594Z,1.88
2022-08-11T09:20:34.541Z,1.12
2022-08-11T09:21:45.482Z,1.08
2022-08-11T09:22:36.524Z,1.15
2022-08-11T09:24:11.402Z,1.5
2022-08-11T09:24:39.614Z,1.01
2022-08-11T09:25:40.554Z,0.36
2022-08-11T09:26:41.595Z,1.34
2022-08-11T09:27:50.154Z,1.85
2022-08-11T09:28:43.555Z,1.25
2022-08-11T09:29:44.557Z,1.7
2022-08-11T09:30:45.567Z,2.12
2022-08-11T09:31:46.635Z,3.28
2022-08-11T09:32:48.580Z,1.5
2022-08-11T09:33:49.555Z,1.59
2022-08-11T09:34:50.534Z,2
2022-08-11T09:35:51.574Z,1.44
2022-08-11T09:36:52.554Z,1.12
2022-08-11T09:37:56.337Z,1.09
2022-08-11T09:38:54.534Z,1.36
2022-08-11T09:39:55.704Z,1.48
2022-08-11T09:40:57.052Z,1.09
2022-08-11T09:42:01.981Z,1.76
2022-08-11T09:42:58.554Z,1.15
2022-08-11T09:44:03.555Z,0.89
2022-08-11T09:45:02.002Z,1.72
2022-08-11T09:46:02.674Z,1.52
2022-08-11T09:47:03.576Z,0.83
2022-08-11T09:48:04.535Z,1.61
2022-08-11T09:49:05.514Z,1.56
2022-08-11T09:50:06.476Z,1.26
2022-08-11T09:51:07.595Z,0.96
2022-08-11T09:52:08.537Z,1.21
2022-08-11T09:53:35.487Z,0.72
2022-08-11T09:54:10.517Z,0.95
2022-08-11T09:55:11.558Z,1.22
2022-08-11T09:56:12.590Z,2.09
2022-08-11T09:57:13.554Z,1.38
2022-08-11T09:58:35.260Z,1.52
2022-08-11T09:59:15.722Z,1.7
2022-08-11T10:00:17.529Z,1.35
2022-08-11T10:01:18.660Z,0.95
2022-08-11T10:02:19.537Z,1.71
2022-08-11T10:03:20.534Z,1.75
2022-08-11T10:04:21.654Z,1.3
2022-08-11T10:05:22.784Z,1.24
2022-08-11T10:06:32.806Z,1.11
2022-08-11T10:07:26.697Z,1.76
2022-08-11T10:08:27.566Z,2.07
2022-08-11T10:09:28.574Z,3.04
2022-08-11T10:10:29.651Z,1.97
2022-08-11T10:11:30.649Z,1.37
2022-08-11T10:12:32.622Z,1.23
2022-08-11T10:14:03.802Z,0.76
2022-08-11T10:14:35.203Z,1.24
2022-08-11T10:15:36.534Z,1.62
2022-08-11T10:16:37.594Z,1.06
2022-08-11T10:17:38.793Z,1.42
2022-08-11T10:18:39.674Z,1.45
2022-08-11T10:19:40.524Z,1.9
2022-08-11T10:20:41.555Z,1.69
2022-08-11T10:21:42.519Z,0.82
2022-08-11T10:22:43.602Z,0.91
2022-08-11T10:24:00.755Z,1.04
2022-08-11T10:24:46.513Z,0.6
2022-08-11T10:25:47.543Z,1.01
2022-08-11T10:26:48.574Z,0.66
2022-08-11T10:28:18.623Z,0.57
2022-08-11T10:29:11.838Z,1.62
2022-08-11T10:29:53.605Z,2.15
2022-08-11T10:30:54.613Z,1.29
2022-08-11T10:31:57.295Z,2.39
2022-08-11T10:32:58.212Z,1.46
2022-08-11T10:33:59.618Z,1.08
2022-08-11T10:34:58.573Z,0.84
2022-08-11T10:35:59.593Z,0.9
2022-08-11T10:37:00.494Z,1.3
2022-08-11T10:38:07.179Z,1.66
2022-08-11T10:39:02.537Z,2.42
2022-08-11T10:40:03.673Z,1.85
2022-08-11T10:41:05.534Z,2.64
2022-08-11T10:42:10.731Z,2.34
2022-08-11T10:43:07.542Z,0.8
2022-08-11T10:44:08.598Z,0.27
2022-08-11T10:45:09.662Z,0.7
2022-08-11T10:46:10.595Z,0.13
2022-08-11T10:47:11.602Z,1.22
2022-08-11T10:48:15.452Z,2.27
2022-08-11T10:49:13.683Z,2.11
2022-08-11T10:50:14.561Z,1.96
2022-08-11T10:51:15.635Z,1.96
2022-08-11T10:52:16.614Z,1.27
2022-08-11T10:53:17.536Z,0.62
2022-08-11T10:54:18.613Z,1.49
2022-08-11T10:55:19.653Z,0.98
2022-08-11T10:56:20.635Z,1.04
2022-08-11T10:57:21.834Z,1.78
2022-08-11T10:58:23.592Z,1.29
2022-08-11T10:59:24.773Z,1.96
2022-08-11T11:00:26.614Z,0.8
2022-08-11T11:01:27.660Z,1
2022-08-11T11:02:28.575Z,0.41
2022-08-11T11:03:29.735Z,1.15
2022-08-11T11:04:33.924Z,1.29
2022-08-11T11:05:33.913Z,2.22
2022-08-11T11:06:35.775Z,2.4
2022-08-11T11:07:37.764Z,2.36
2022-08-11T11:08:38.827Z,1.4
2022-08-11T11:09:40.573Z,2.1
2022-08-11T11:10:41.716Z,1.51
2022-08-11T11:11:42.594Z,1.35
2022-08-11T11:12:43.633Z,1.76
2022-08-11T11:13:53.159Z,2.12
2022-08-11T11:14:50.014Z,0.9
2022-08-11T11:15:48.613Z,0.96
2022-08-11T11:16:49.621Z,0.74
2022-08-11T11:17:50.582Z,1.5
2022-08-11T11:19:00.652Z,1.6
2022-08-11T11:19:52.622Z,3.13
2022-08-11T11:20:53.563Z,2.6
2022-08-11T11:21:54.573Z,2.24
2022-08-11T11:22:55.681Z,2.24
2022-08-11T11:23:56.595Z,1.15
2022-08-11T11:24:57.558Z,1.18
2022-08-11T11:25:58.674Z,1
2022-08-11T11:26:59.819Z,0.97
2022-08-11T11:28:00.607Z,0.36
2022-08-11T11:29:01.615Z,0.91
2022-08-11T11:30:02.601Z,1.51
2022-08-11T11:31:03.682Z,1.71
2022-08-11T11:32:05.754Z,1.64
2022-08-11T11:33:07.575Z,1.96
2022-08-11T11:34:12.483Z,2.65
2022-08-11T11:35:09.615Z,1.89
2022-08-11T11:36:10.716Z,2.19
2022-08-11T11:37:11.667Z,1.83
2022-08-11T11:38:13.916Z,2.47
2022-08-11T11:39:14.658Z,2.62
2022-08-11T11:40:15.754Z,2.22
2022-08-11T11:41:17.761Z,1.93
2022-08-11T11:42:18.607Z,0.97
2022-08-11T11:43:19.693Z,1.59
2022-08-11T11:44:21.714Z,0.82
2022-08-11T11:45:23.989Z,2.77
2022-08-11T11:46:28.319Z,1.45
2022-08-11T11:47:25.663Z,3.33
2022-08-11T11:48:26.714Z,2.47
2022-08-11T11:49:27.621Z,1.42
2022-08-11T11:50:31.892Z,2.08
2022-08-11T11:51:29.596Z,1.84
2022-08-11T11:52:30.637Z,2.26
2022-08-11T11:53:31.573Z,1.73
2022-08-11T11:54:32.609Z,0.99
2022-08-11T11:55:33.616Z,1.66
2022-08-11T11:56:34.634Z,2.08
2022-08-11T11:57:35.575Z,1.64
2022-08-11T11:58:36.571Z,2.17
2022-08-11T11:59:37.594Z,2.01
2022-08-11T12:00:41.594Z,0.91
2022-08-11T12:01:40.036Z,0.84
2022-08-11T12:02:41.727Z,1.18
2022-08-11T12:03:42.952Z,3.76
2022-08-11T12:04:44.606Z,2.83
2022-08-11T12:05:45.632Z,1.47
2022-08-11T12:06:46.887Z,0.62
2022-08-11T12:07:56.800Z,1.81
2022-08-11T12:08:49.573Z,1.26
2022-08-11T12:09:50.581Z,1.36
2022-08-11T12:10:51.601Z,1.06
2022-08-11T12:11:52.575Z,1.52
2022-08-11T12:12:53.873Z,1.7
2022-08-11T12:13:55.814Z,1.77
2022-08-11T12:14:57.695Z,1.09
2022-08-11T12:16:03.724Z,0.77
2022-08-11T12:17:00.194Z,1.07
2022-08-11T12:18:01.834Z,0.83
2022-08-11T12:19:03.858Z,1.49
2022-08-11T12:20:05.696Z,1.8
2022-08-11T12:21:06.594Z,0.73
2022-08-11T12:22:07.803Z,0.74
2022-08-11T12:23:09.774Z,0.9
2022-08-11T12:24:11.653Z,2.1
2022-08-11T12:25:12.635Z,1.21
2022-08-11T12:26:26.731Z,1.72
2022-08-11T12:27:15.426Z,0.74
2022-08-11T12:28:15.621Z,0.69
2022-08-11T12:29:16.813Z,0.78
2022-08-11T12:30:18.795Z,1.66
2022-08-11T12:31:19.657Z,2.44
2022-08-11T12:32:20.686Z,0.98
2022-08-11T12:33:21.694Z,1.62
2022-08-11T12:34:22.601Z,1.4
2022-08-11T12:35:23.723Z,2.63
2022-08-11T12:36:24.655Z,2.21
2022-08-11T12:37:25.613Z,1.91
2022-08-11T12:38:29.824Z,2.52
2022-08-11T12:40:13.190Z,1.59
2022-08-11T12:40:37.826Z,2.05
2022-08-11T12:41:29.744Z,1.59
2022-08-11T12:42:30.645Z,1.37
2022-08-11T12:43:37.428Z,0.96
2022-08-11T12:44:33.714Z,1.05
2022-08-11T12:45:34.654Z,1.64
2022-08-11T12:46:35.674Z,1.26
2022-08-11T12:47:36.735Z,1.1
2022-08-11T12:48:58.239Z,1.64
2022-08-11T12:49:41.974Z,1.4
2022-08-11T12:50:40.657Z,1.52
2022-08-11T12:52:01.069Z,2.7
2022-08-11T12:52:42.722Z,2.64
2022-08-11T12:53:43.637Z,2.28
2022-08-11T12:54:44.634Z,2.11
2022-08-11T12:56:03.328Z,1.31
2022-08-11T12:56:46.804Z,1.48
2022-08-11T12:57:48.823Z,0.8
2022-08-11T12:58:49.875Z,1.69
2022-08-11T12:59:51.757Z,0.77
2022-08-11T13:00:53.855Z,0.63
2022-08-11T13:01:55.897Z,2.05
2022-08-11T13:02:57.734Z,2.69
2022-08-11T13:03:58.635Z,1.66
2022-08-11T13:05:02.448Z,1.52
2022-08-11T13:06:03.797Z,0.65
2022-08-11T13:07:05.692Z,1.02
2022-08-11T13:08:06.945Z,1.38
2022-08-11T13:09:08.774Z,1.67
2022-08-11T13:10:11.102Z,1.27
2022-08-11T13:11:11.695Z,2.21
2022-08-11T13:12:12.894Z,1.45
2022-08-11T13:13:53.378Z,1.18
2022-08-11T13:14:16.835Z,1.04
2022-08-11T13:15:18.895Z,2.29
2022-08-11T13:16:20.789Z,1.54
2022-08-11T13:17:21.896Z,1.91
2022-08-11T13:18:23.799Z,1.37
2022-08-11T13:19:25.655Z,2.11
2022-08-11T13:20:26.716Z,1
2022-08-11T13:21:27.628Z,1.06
2022-08-11T13:22:28.881Z,1.14
2022-08-11T13:23:29.667Z,1.36
2022-08-11T13:24:30.724Z,1.06
2022-08-11T13:25:31.916Z,1.46
2022-08-11T13:26:43.272Z,1.79
2022-08-11T13:27:35.817Z,1.21
2022-08-11T13:28:37.599Z,1.82
2022-08-11T13:29:38.635Z,2.41
2022-08-11T13:30:43.129Z,1.76
2022-08-11T13:31:40.655Z,1.77
2022-08-11T13:32:41.695Z,2.54
2022-08-11T13:33:42.657Z,1.55
2022-08-11T13:34:46.615Z,1.16
2022-08-11T13:35:47.924Z,0.92
2022-08-11T13:36:49.837Z,2.3
2022-08-11T13:38:17.998Z,1.63
2022-08-11T13:38:53.732Z,1.29
2022-08-11T13:39:54.879Z,1.63
2022-08-11T13:40:56.681Z,2.33
2022-08-11T13:41:57.635Z,0.83
2022-08-11T13:42:58.675Z,0.49
2022-08-11T13:43:59.634Z,0.45
2022-08-11T13:45:00.618Z,0.84
2022-08-11T13:46:01.836Z,2.05
2022-08-11T13:47:03.715Z,1.84
2022-08-11T13:48:04.654Z,1.77
2022-08-11T13:49:05.655Z,1.49
2022-08-11T13:50:06.729Z,0.65
2022-08-11T13:51:07.575Z,1.36
2022-08-11T13:52:08.699Z,1.3
2022-08-11T13:53:09.695Z,0.6
2022-08-11T13:54:10.675Z,1.04
2022-08-11T13:55:11.643Z,1.31
2022-08-11T13:56:12.856Z,1.52
2022-08-11T13:58:07.046Z,0.72
2022-08-11T13:58:19.772Z,1.43
2022-08-11T13:59:17.815Z,1.33
2022-08-11T14:00:23.704Z,1.47
2022-08-11T14:01:35.297Z,0.42
2022-08-11T14:02:28.856Z,0.72
2022-08-11T14:03:22.787Z,1.01
2022-08-11T14:04:29.622Z,0.65
2022-08-11T14:05:24.717Z,0.98
2022-08-11T14:06:25.683Z,0.56
2022-08-11T14:07:26.615Z,0.74
2022-08-11T14:08:33.961Z,0.46
2022-08-11T14:09:28.635Z,0.94
2022-08-11T14:10:29.674Z,0.41
2022-08-11T14:12:20.968Z,0.52
2022-08-11T14:12:31.775Z,1.39
2022-08-11T14:13:41.486Z,0.84
2022-08-11T14:14:35.874Z,0.82
2022-08-11T14:15:37.994Z,1.61
2022-08-11T14:16:39.781Z,1.97
2022-08-11T14:17:46.997Z,1.24
2022-08-11T14:18:43.734Z,1.08
2022-08-11T14:19:44.679Z,1.25